createdAt,value
2019-05-12T00:00:20.524Z,10.28
2019-05-12T00:01:31.139Z,10.28
2019-05-12T00:02:42.210Z,10.39
2019-05-12T00:03:53.588Z,10.21
2019-05-12T00:05:05.488Z,10.33
2019-05-12T00:06:17.631Z,10.27
2019-05-12T00:07:28.528Z,10.34
2019-05-12T00:08:40.602Z,10.36
2019-05-12T00:09:52.786Z,10.2
2019-05-12T00:11:03.172Z,10.25
2019-05-12T00:12:14.325Z,10.3
2019-05-12T00:13:27.835Z,10.18
2019-05-12T00:14:38.112Z,10.17
2019-05-12T00:15:50.044Z,10.27
2019-05-12T00:17:00.560Z,10.3
2019-05-12T00:18:11.442Z,10.3
2019-05-12T00:19:23.117Z,10.25
2019-05-12T00:20:33.809Z,10.25
2019-05-12T00:21:48.257Z,10.27
2019-05-12T00:23:00.519Z,10.23
2019-05-12T00:24:30.476Z,10.25
2019-05-12T00:25:41.242Z,10.23
2019-05-12T00:26:53.212Z,10.23
2019-05-12T00:28:03.615Z,10.23
2019-05-12T00:29:15.537Z,10.25
2019-05-12T00:30:27.656Z,10.23
2019-05-12T00:31:38.240Z,10.24
2019-05-12T00:32:50.269Z,10.23
2019-05-12T00:34:00.938Z,10.27
2019-05-12T00:35:13.019Z,10.23
2019-05-12T00:36:23.513Z,10.3
2019-05-12T00:37:34.576Z,10.21
2019-05-12T00:38:45.650Z,10.24
2019-05-12T00:39:58.166Z,10.2
2019-05-12T00:41:08.727Z,10.24
2019-05-12T00:42:20.787Z,10.23
2019-05-12T00:43:32.854Z,10.27
2019-05-12T00:44:43.963Z,10.21
2019-05-12T00:45:55.554Z,10.21
2019-05-12T00:47:08.099Z,10.24
2019-05-12T00:48:20.176Z,10.21
2019-05-12T00:49:31.418Z,10.1
2019-05-12T00:50:43.428Z,10.2
2019-05-12T00:51:53.723Z,10.18
2019-05-12T00:53:03.758Z,10.1
2019-05-12T00:54:17.806Z,10.05
2019-05-12T00:55:28.810Z,10.2
2019-05-12T00:56:41.451Z,10.15
2019-05-12T00:57:53.270Z,10.13
2019-05-12T00:59:05.422Z,10.2
2019-05-12T01:00:17.836Z,10.15
2019-05-12T01:01:28.487Z,10.12
2019-05-12T01:02:40.490Z,10.12
2019-05-12T01:03:50.864Z,10.09
2019-05-12T01:05:03.139Z,10.18
2019-05-12T01:06:13.881Z,10.07
2019-05-12T01:07:27.615Z,10.13
2019-05-12T01:08:38.258Z,10.13
2019-05-12T01:09:49.076Z,10.1
2019-05-12T01:11:00.844Z,10.18
2019-05-12T01:12:12.642Z,10.09
2019-05-12T01:13:23.695Z,10.13
2019-05-12T01:14:35.621Z,10.07
2019-05-12T01:15:48.022Z,10.07
2019-05-12T01:17:00.199Z,10.1
2019-05-12T01:18:11.763Z,10.1
2019-05-12T01:19:23.537Z,10.09
2019-05-12T01:20:34.168Z,10.13
2019-05-12T01:21:48.094Z,10.13
2019-05-12T01:23:00.511Z,10.12
2019-05-12T01:24:11.377Z,10.06
2019-05-12T01:25:23.855Z,10.09
2019-05-12T01:26:38.538Z,10.12
2019-05-12T01:27:50.692Z,10.12
2019-05-12T01:29:02.793Z,10.09
2019-05-12T01:30:13.863Z,10.06
2019-05-12T01:31:25.742Z,10.1
2019-05-12T01:32:38.055Z,10.06
2019-05-12T01:33:48.566Z,10.05
2019-05-12T01:35:00.187Z,10.07
2019-05-12T01:36:12.698Z,10.09
2019-05-12T01:37:23.407Z,10.06
2019-05-12T01:38:37.777Z,10.09
2019-05-12T01:39:49.084Z,10.1
2019-05-12T01:41:00.873Z,10.06
2019-05-12T01:42:11.555Z,10.03
2019-05-12T01:43:27.730Z,10.12
2019-05-12T01:44:38.155Z,10.02
2019-05-12T01:45:50.708Z,10.06
2019-05-12T01:47:02.607Z,10.09
2019-05-12T01:48:13.986Z,10.09
2019-05-12T01:49:25.832Z,10.07
2019-05-12T01:50:38.542Z,10.12
2019-05-12T01:51:49.851Z,10.03
2019-05-12T01:53:01.349Z,10.05
2019-05-12T01:54:21.322Z,10
2019-05-12T01:55:33.218Z,10.06
2019-05-12T01:56:44.190Z,10
2019-05-12T01:57:57.679Z,10.07
2019-05-12T01:59:08.091Z,10.03
2019-05-12T02:00:20.637Z,10.05
2019-05-12T02:01:33.327Z,10.1
2019-05-12T02:02:44.228Z,10.05
2019-05-12T02:03:55.457Z,10.05
2019-05-12T02:05:08.210Z,10.07
2019-05-12T02:06:18.420Z,10
2019-05-12T02:07:30.435Z,10
2019-05-12T02:08:40.857Z,10.05
2019-05-12T02:09:53.085Z,10.05
2019-05-12T02:11:03.446Z,10.03
2019-05-12T02:12:15.497Z,9.97
2019-05-12T02:13:27.678Z,10.05
2019-05-12T02:14:38.151Z,10.03
2019-05-12T02:15:48.636Z,10
2019-05-12T02:17:00.369Z,10
2019-05-12T02:18:11.511Z,9.95
2019-05-12T02:19:23.050Z,9.99
2019-05-12T02:20:33.859Z,10
2019-05-12T02:21:45.537Z,9.99
2019-05-12T02:22:58.111Z,9.99
2019-05-12T02:24:23.215Z,10.03
2019-05-12T02:25:40.064Z,9.99
2019-05-12T02:26:50.929Z,9.99
2019-05-12T02:28:03.237Z,10
2019-05-12T02:29:14.669Z,9.95
2019-05-12T02:30:25.713Z,9.99
2019-05-12T02:31:39.607Z,9.95
2019-05-12T02:33:04.913Z,9.95
2019-05-12T02:34:18.340Z,9.97
2019-05-12T02:35:30.486Z,9.94
2019-05-12T02:36:44.764Z,9.92
2019-05-12T02:37:57.509Z,9.95
2019-05-12T02:39:10.308Z,9.94
2019-05-12T02:40:25.080Z,9.9
2019-05-12T02:41:37.082Z,9.95
2019-05-12T02:42:54.530Z,9.99
2019-05-12T02:44:07.767Z,9.94
2019-05-12T02:45:20.573Z,9.95
2019-05-12T02:46:37.193Z,9.87
2019-05-12T02:47:50.675Z,9.9
2019-05-12T02:49:04.697Z,9.9
2019-05-12T02:50:17.017Z,9.82
2019-05-12T02:51:29.976Z,9.92
2019-05-12T02:52:44.201Z,9.9
2019-05-12T02:53:57.029Z,9.82
2019-05-12T02:55:11.191Z,9.87
2019-05-12T02:56:25.542Z,9.88
2019-05-12T02:57:39.056Z,9.91
2019-05-12T02:58:54.300Z,9.91
2019-05-12T03:00:07.441Z,9.85
2019-05-12T03:01:24.033Z,9.84
2019-05-12T03:02:37.165Z,9.84
2019-05-12T03:03:49.566Z,9.81
2019-05-12T03:05:05.243Z,9.8
2019-05-12T03:06:17.620Z,9.82
2019-05-12T03:07:30.525Z,9.8
2019-05-12T03:08:44.835Z,9.84
2019-05-12T03:09:57.224Z,9.87
2019-05-12T03:11:11.098Z,9.82
2019-05-12T03:12:25.543Z,9.84
2019-05-12T03:13:37.043Z,9.81
2019-05-12T03:14:50.027Z,9.82
2019-05-12T03:16:04.738Z,9.84
2019-05-12T03:17:17.746Z,9.84
2019-05-12T03:18:30.465Z,9.84
2019-05-12T03:19:44.843Z,9.74
2019-05-12T03:20:57.202Z,9.73
2019-05-12T03:22:10.424Z,9.69
2019-05-12T03:23:27.225Z,9.7
2019-05-12T03:24:40.462Z,9.69
2019-05-12T03:26:11.205Z,9.66
2019-05-12T03:27:25.489Z,9.7
2019-05-12T03:28:38.097Z,9.74
2019-05-12T03:29:49.940Z,9.7
2019-05-12T03:31:07.478Z,9.66
2019-05-12T03:32:37.655Z,9.66
2019-05-12T03:34:09.092Z,9.64
2019-05-12T03:35:52.627Z,9.66
2019-05-12T03:37:20.032Z,9.64
2019-05-12T03:38:41.086Z,9.63
2019-05-12T03:39:54.473Z,9.62
2019-05-12T03:41:07.676Z,9.64
2019-05-12T03:42:19.576Z,9.69
2019-05-12T03:43:35.024Z,9.67
2019-05-12T03:44:47.037Z,9.56
2019-05-12T03:45:58.410Z,9.62
2019-05-12T03:47:10.551Z,9.66
2019-05-12T03:48:24.965Z,9.58
2019-05-12T03:49:37.280Z,9.58
2019-05-12T03:50:53.895Z,9.62
2019-05-12T03:52:07.263Z,9.58
2019-05-12T03:53:24.374Z,9.54
2019-05-12T03:54:37.153Z,9.58
2019-05-12T03:55:54.914Z,9.62
2019-05-12T03:57:06.943Z,9.67
2019-05-12T03:58:20.136Z,9.55
2019-05-12T03:59:34.746Z,9.62
2019-05-12T04:00:46.939Z,9.59
2019-05-12T04:02:00.087Z,9.64
2019-05-12T04:03:14.882Z,9.67
2019-05-12T04:04:26.907Z,9.55
2019-05-12T04:05:40.544Z,9.54
2019-05-12T04:06:54.342Z,9.58
2019-05-12T04:08:07.808Z,9.56
2019-05-12T04:09:20.935Z,9.58
2019-05-12T04:10:34.914Z,9.62
2019-05-12T04:11:46.619Z,9.56
2019-05-12T04:12:59.559Z,9.62
2019-05-12T04:14:14.637Z,9.62
2019-05-12T04:15:27.912Z,9.66
2019-05-12T04:16:41.305Z,9.62
2019-05-12T04:17:54.269Z,9.58
2019-05-12T04:19:07.584Z,9.66
2019-05-12T04:20:20.347Z,9.56
2019-05-12T04:21:34.975Z,9.54
2019-05-12T04:22:47.122Z,9.7
2019-05-12T04:23:59.706Z,9.55
2019-05-12T04:25:14.522Z,9.66
2019-05-12T04:26:27.338Z,9.52
2019-05-12T04:27:44.670Z,9.54
2019-05-12T04:28:57.424Z,9.62
2019-05-12T04:30:10.628Z,9.54
2019-05-12T04:31:24.352Z,9.56
2019-05-12T04:32:38.081Z,9.59
2019-05-12T04:33:50.260Z,9.56
2019-05-12T04:35:04.668Z,9.59
2019-05-12T04:36:17.316Z,9.62
2019-05-12T04:37:30.068Z,9.64
2019-05-12T04:38:44.943Z,9.62
2019-05-12T04:39:57.919Z,9.56
2019-05-12T04:41:14.260Z,9.59
2019-05-12T04:42:30.920Z,9.55
2019-05-12T04:43:44.703Z,9.59
2019-05-12T04:44:57.569Z,9.56
2019-05-12T04:46:10.107Z,9.59
2019-05-12T04:47:24.960Z,9.51
2019-05-12T04:48:38.452Z,9.48
2019-05-12T04:49:50.480Z,9.42
2019-05-12T04:51:04.719Z,9.42
2019-05-12T04:52:17.665Z,9.51
2019-05-12T04:53:30.387Z,9.52
2019-05-12T04:54:44.435Z,9.52
2019-05-12T04:56:24.643Z,9.4
2019-05-12T04:57:37.165Z,9.44
2019-05-12T04:58:50.195Z,9.4
2019-05-12T05:00:04.941Z,9.56
2019-05-12T05:01:18.103Z,9.52
2019-05-12T05:02:30.427Z,9.54
2019-05-12T05:03:46.761Z,9.58
2019-05-12T05:04:59.791Z,9.56
2019-05-12T05:06:14.780Z,9.58
2019-05-12T05:07:26.620Z,9.52
2019-05-12T05:08:39.493Z,9.63
2019-05-12T05:09:54.543Z,9.59
2019-05-12T05:11:06.563Z,9.58
2019-05-12T05:12:18.854Z,9.59
2019-05-12T05:13:35.147Z,9.54
2019-05-12T05:14:49.562Z,9.69
2019-05-12T05:16:05.055Z,9.62
2019-05-12T05:17:17.477Z,9.72
2019-05-12T05:18:29.737Z,9.69
2019-05-12T05:19:43.902Z,9.72
2019-05-12T05:20:54.238Z,9.73
2019-05-12T05:22:04.320Z,9.85
2019-05-12T05:23:16.461Z,9.8
2019-05-12T05:24:28.404Z,9.81
2019-05-12T05:25:39.222Z,9.8
2019-05-12T05:26:51.153Z,9.85
2019-05-12T05:28:03.688Z,9.85
2019-05-12T05:29:15.894Z,9.9
2019-05-12T05:30:26.770Z,9.9
2019-05-12T05:31:39.131Z,9.97
2019-05-12T05:32:49.535Z,9.97
2019-05-12T05:34:00.714Z,9.99
2019-05-12T05:35:13.653Z,10.09
2019-05-12T05:36:25.245Z,10.12
2019-05-12T05:37:44.147Z,10.07
2019-05-12T05:39:04.276Z,10.06
2019-05-12T05:40:19.706Z,10.07
2019-05-12T05:41:40.038Z,10.15
2019-05-12T05:43:03.460Z,10.18
2019-05-12T05:44:29.055Z,10.17
2019-05-12T05:45:46.270Z,10.24
2019-05-12T05:47:09.105Z,10.24
2019-05-12T05:48:26.584Z,10.24
2019-05-12T05:49:40.500Z,10.2
2019-05-12T05:50:51.067Z,10.24
2019-05-12T05:52:06.035Z,10.28
2019-05-12T05:53:24.257Z,10.21
2019-05-12T05:54:43.962Z,10.3
2019-05-12T05:56:00.826Z,10.23
2019-05-12T05:57:14.144Z,10.36
2019-05-12T05:58:33.890Z,10.28
2019-05-12T05:59:56.251Z,10.28
2019-05-12T06:01:13.485Z,10.27
2019-05-12T06:02:44.075Z,10.25
2019-05-12T06:03:58.261Z,10.25
2019-05-12T06:05:19.846Z,10.27
2019-05-12T06:06:42.355Z,10.23
2019-05-12T06:08:04.144Z,10.18
2019-05-12T06:09:25.700Z,10.27
2019-05-12T06:10:43.533Z,10.36
2019-05-12T06:11:54.143Z,10.24
2019-05-12T06:13:14.358Z,10.23
2019-05-12T06:14:36.648Z,10.31
2019-05-12T06:15:56.041Z,10.38
2019-05-12T06:17:06.758Z,10.38
2019-05-12T06:18:18.395Z,10.46
2019-05-12T06:19:31.102Z,10.43
2019-05-12T06:20:43.645Z,10.45
2019-05-12T06:21:55.782Z,10.39
2019-05-12T06:23:06.907Z,10.46
2019-05-12T06:24:23.866Z,10.49
2019-05-12T06:25:54.853Z,10.45
2019-05-12T06:27:20.892Z,10.49
2019-05-12T06:28:43.925Z,10.57
2019-05-12T06:30:08.543Z,10.49
2019-05-12T06:31:33.174Z,10.53
2019-05-12T06:32:54.599Z,10.51
2019-05-12T06:34:20.720Z,10.59
2019-05-12T06:35:42.175Z,10.62
2019-05-12T06:36:56.934Z,10.51
2019-05-12T06:38:18.397Z,10.59
2019-05-12T06:39:28.926Z,10.59
2019-05-12T06:40:47.933Z,10.55
2019-05-12T06:42:16.929Z,10.55
2019-05-12T06:43:39.601Z,10.57
2019-05-12T06:44:59.372Z,10.48
2019-05-12T06:46:20.620Z,10.57
2019-05-12T06:47:34.297Z,10.67
2019-05-12T06:48:54.350Z,10.62
2019-05-12T06:50:19.462Z,10.67
2019-05-12T06:51:36.308Z,10.77
2019-05-12T06:52:53.100Z,10.79
2019-05-12T06:54:15.033Z,10.71
2019-05-12T06:55:28.511Z,10.76
2019-05-12T06:56:49.949Z,10.8
2019-05-12T06:58:36.636Z,10.76
2019-05-12T06:59:57.509Z,10.72
2019-05-12T07:01:23.933Z,10.77
2019-05-12T07:02:49.857Z,10.79
2019-05-12T07:04:11.170Z,10.84
2019-05-12T07:05:23.051Z,10.92
2019-05-12T07:06:43.833Z,10.8
2019-05-12T07:08:03.884Z,10.83
2019-05-12T07:09:32.488Z,10.9
2019-05-12T07:11:08.626Z,11
2019-05-12T07:12:24.709Z,10.86
2019-05-12T07:14:22.761Z,10.94
2019-05-12T07:15:43.853Z,10.97
2019-05-12T07:17:07.621Z,11.04
2019-05-12T07:18:36.934Z,11.04
2019-05-12T07:19:54.558Z,11.04
2019-05-12T07:21:23.980Z,11.1
2019-05-12T07:22:48.402Z,11.13
2019-05-12T07:24:06.486Z,11.12
2019-05-12T07:25:22.489Z,11.05
2019-05-12T07:26:44.120Z,11.05
2019-05-12T07:28:14.376Z,11.16
2019-05-12T07:29:26.269Z,11.1
2019-05-12T07:30:39.515Z,11.16
2019-05-12T07:31:53.651Z,11.12
2019-05-12T07:33:07.069Z,11.16
2019-05-12T07:34:19.465Z,11.15
2019-05-12T07:35:33.646Z,11.19
2019-05-12T07:36:44.328Z,11.16
2019-05-12T07:37:56.399Z,11.18
2019-05-12T07:39:13.400Z,11.18
2019-05-12T07:40:36.704Z,11.16
2019-05-12T07:41:57.446Z,11.19
2019-05-12T07:43:20.423Z,11.19
2019-05-12T07:44:45.983Z,11.19
2019-05-12T07:46:09.684Z,11.19
2019-05-12T07:47:30.359Z,11.18
2019-05-12T07:48:53.844Z,11.18
2019-05-12T07:50:09.713Z,11.23
2019-05-12T07:51:36.199Z,11.16
2019-05-12T07:52:49.971Z,11.08
2019-05-12T07:54:06.366Z,11.16
2019-05-12T07:55:17.299Z,11
2019-05-12T07:56:40.576Z,11.07
2019-05-12T07:58:18.655Z,11.13
2019-05-12T07:59:43.841Z,11.12
2019-05-12T08:01:10.118Z,11.15
2019-05-12T08:02:35.589Z,11.12
2019-05-12T08:03:46.166Z,11.15
2019-05-12T08:05:10.908Z,11.13
2019-05-12T08:06:32.432Z,11.16
2019-05-12T08:08:00.513Z,11.2
2019-05-12T08:09:23.931Z,11.15
2019-05-12T08:10:44.418Z,11.16
2019-05-12T08:12:03.472Z,11.18
2019-05-12T08:13:26.295Z,11.25
2019-05-12T08:14:43.919Z,11.37
2019-05-12T08:15:58.618Z,11.45
2019-05-12T08:17:21.805Z,11.53
2019-05-12T08:18:44.297Z,11.63
2019-05-12T08:19:56.126Z,11.73
2019-05-12T08:21:08.287Z,11.71
2019-05-12T08:22:29.761Z,11.73
2019-05-12T08:23:44.402Z,11.83
2019-05-12T08:24:56.231Z,11.8
2019-05-12T08:26:21.037Z,11.8
2019-05-12T08:27:33.879Z,11.83
2019-05-12T08:28:53.476Z,11.93
2019-05-12T08:30:08.641Z,11.93
2019-05-12T08:31:23.289Z,12.02
2019-05-12T08:32:49.112Z,11.97
2019-05-12T08:34:15.873Z,12
2019-05-12T08:35:40.509Z,12.05
2019-05-12T08:37:00.735Z,12.26
2019-05-12T08:38:14.177Z,12.21
2019-05-12T08:39:28.467Z,12.35
2019-05-12T08:40:46.307Z,12.43
2019-05-12T08:42:03.876Z,12.51
2019-05-12T08:43:17.414Z,12.44
2019-05-12T08:44:43.910Z,12.54
2019-05-12T08:46:00.150Z,12.53
2019-05-12T08:47:20.819Z,12.5
2019-05-12T08:48:36.650Z,12.68
2019-05-12T08:50:01.241Z,12.73
2019-05-12T08:51:24.897Z,12.73
2019-05-12T08:52:44.146Z,12.88
2019-05-12T08:54:10.567Z,12.76
2019-05-12T08:55:35.730Z,12.81
2019-05-12T08:56:50.934Z,12.93
2019-05-12T08:58:09.225Z,13.23
2019-05-12T09:00:08.414Z,13.58
2019-05-12T09:01:34.123Z,13.89
2019-05-12T09:02:50.750Z,14.16
2019-05-12T09:04:15.720Z,14.38
2019-05-12T09:05:41.103Z,14.7
2019-05-12T09:07:01.215Z,15.08
2019-05-12T09:08:13.763Z,15.44
2019-05-12T09:09:25.698Z,15.72
2019-05-12T09:10:36.817Z,15.98
2019-05-12T09:11:48.786Z,15.75
2019-05-12T09:12:59.532Z,15.57
2019-05-12T09:14:14.386Z,15.6
2019-05-12T09:15:26.403Z,15.83
2019-05-12T09:16:37.737Z,16.12
2019-05-12T09:18:01.250Z,15.83
2019-05-12T09:19:27.183Z,15.99
2019-05-12T09:20:48.636Z,16.28
2019-05-12T09:22:18.375Z,16.55
2019-05-12T09:23:45.373Z,16.76
2019-05-12T09:25:09.190Z,16.76
2019-05-12T09:26:29.599Z,17.12
2019-05-12T09:27:50.644Z,17.42
2019-05-12T09:29:03.412Z,17.35
2019-05-12T09:30:16.677Z,17.44
2019-05-12T09:31:33.554Z,17.78
2019-05-12T09:32:55.931Z,17.86
2019-05-12T09:34:18.682Z,17.87
2019-05-12T09:35:39.624Z,18.11
2019-05-12T09:37:03.969Z,18.53
2019-05-12T09:38:26.207Z,19.04
2019-05-12T09:39:51.759Z,19.35
2019-05-12T09:41:08.093Z,19.67
2019-05-12T09:42:30.364Z,20.02
2019-05-12T09:43:53.298Z,20.3
2019-05-12T09:45:13.731Z,20.82
2019-05-12T09:46:28.238Z,20.89
2019-05-12T09:47:46.069Z,20.95
2019-05-12T09:48:59.575Z,21.11
2019-05-12T09:50:23.318Z,21.28
2019-05-12T09:51:48.388Z,21.58
2019-05-12T09:53:06.956Z,21.3
2019-05-12T09:54:25.787Z,21.07
2019-05-12T09:55:49.727Z,21.44
2019-05-12T09:57:06.789Z,22
2019-05-12T09:58:30.256Z,21.7
2019-05-12T09:59:45.737Z,21.65
2019-05-12T10:01:09.638Z,21.68
2019-05-12T10:02:26.257Z,21.54
2019-05-12T10:03:46.114Z,21.68
2019-05-12T10:05:03.879Z,21.78
2019-05-12T10:06:21.940Z,21.56
2019-05-12T10:07:33.922Z,21.72
2019-05-12T10:08:45.747Z,21.63
2019-05-12T10:10:03.596Z,21.01
2019-05-12T10:11:20.686Z,20.29
2019-05-12T10:12:50.409Z,20.33
2019-05-12T10:14:10.878Z,20.73
2019-05-12T10:15:29.112Z,20.93
2019-05-12T10:16:50.612Z,20.74
2019-05-12T10:18:14.078Z,20.5
2019-05-12T10:19:26.016Z,20.14
2019-05-12T10:20:44.045Z,20.36
2019-05-12T10:22:02.712Z,20.5
2019-05-12T10:23:27.227Z,20.96
2019-05-12T10:25:00.130Z,21.4
2019-05-12T10:26:17.282Z,22
2019-05-12T10:27:37.028Z,22.33
2019-05-12T10:29:14.028Z,22.7
2019-05-12T10:30:29.766Z,22.95
2019-05-12T10:31:46.881Z,22.78
2019-05-12T10:32:58.955Z,22.55
2019-05-12T10:34:11.283Z,21.81
2019-05-12T10:35:29.130Z,21.48
2019-05-12T10:36:49.378Z,21.56
2019-05-12T10:38:13.169Z,22.12
2019-05-12T10:39:24.306Z,22.38
2019-05-12T10:40:36.311Z,22.52
2019-05-12T10:41:48.559Z,21.45
2019-05-12T10:42:59.929Z,21.08
2019-05-12T10:44:13.842Z,20.9
2019-05-12T10:45:26.018Z,21.2
2019-05-12T10:46:35.994Z,21.11
2019-05-12T10:47:47.835Z,21.47
2019-05-12T10:48:58.799Z,21.75
2019-05-12T10:50:08.989Z,22.12
2019-05-12T10:51:19.457Z,22.67
2019-05-12T10:52:39.806Z,23.42
2019-05-12T10:54:09.789Z,24.07
2019-05-12T10:55:23.898Z,24.37
2019-05-12T10:56:34.764Z,24.53
2019-05-12T10:57:47.455Z,24.71
2019-05-12T10:59:13.311Z,24.79
2019-05-12T11:00:39.011Z,24.36
2019-05-12T11:01:54.123Z,24.41
2019-05-12T11:03:15.420Z,24.09
2019-05-12T11:04:43.908Z,23.85
2019-05-12T11:06:10.078Z,22.77
2019-05-12T11:07:22.855Z,22.74
2019-05-12T11:08:41.235Z,22.43
2019-05-12T11:10:02.889Z,22.78
2019-05-12T11:11:32.732Z,22.36
2019-05-12T11:12:52.346Z,22.34
2019-05-12T11:14:14.204Z,22.46
2019-05-12T11:15:33.902Z,22.12
2019-05-12T11:16:54.217Z,21.63
2019-05-12T11:18:07.216Z,21.32
2019-05-12T11:19:18.613Z,21.35
2019-05-12T11:20:29.961Z,20.75
2019-05-12T11:21:44.240Z,20.49
2019-05-12T11:22:56.593Z,20.53
2019-05-12T11:24:08.732Z,20.9
2019-05-12T11:25:19.334Z,21.03
2019-05-12T11:26:29.787Z,20.74
2019-05-12T11:27:39.504Z,20.73
2019-05-12T11:28:53.193Z,20.86
2019-05-12T11:30:04.261Z,21.22
2019-05-12T11:31:16.036Z,21.53
2019-05-12T11:32:34.602Z,21.72
2019-05-12T11:33:48.412Z,22.23
2019-05-12T11:34:59.404Z,22.56
2019-05-12T11:36:13.521Z,22.68
2019-05-12T11:37:25.520Z,22.62
2019-05-12T11:38:39.034Z,22.61
2019-05-12T11:39:53.486Z,23.02
2019-05-12T11:41:04.213Z,23.16
2019-05-12T11:42:26.283Z,23.23
2019-05-12T11:43:38.861Z,23.62
2019-05-12T11:44:48.896Z,23.88
2019-05-12T11:45:58.601Z,24.16
2019-05-12T11:47:08.652Z,24.58
2019-05-12T11:48:31.340Z,24.81
2019-05-12T11:49:46.600Z,25.26
2019-05-12T11:50:59.169Z,25.46
2019-05-12T11:52:23.918Z,25.7
2019-05-12T11:53:37.507Z,25.8
2019-05-12T11:54:55.988Z,25.89
2019-05-12T11:56:10.055Z,25.98
2019-05-12T11:57:31.216Z,25.83
2019-05-12T11:58:54.094Z,26.06
2019-05-12T12:00:07.866Z,26.33
2019-05-12T12:01:18.786Z,26.31
2019-05-12T12:02:34.182Z,26.48
2019-05-12T12:03:46.430Z,26.79
2019-05-12T12:04:56.824Z,26.91
2019-05-12T12:06:06.793Z,27.13
2019-05-12T12:07:18.470Z,27.22
2019-05-12T12:08:39.683Z,26.86
2019-05-12T12:09:59.512Z,26.33
2019-05-12T12:11:27.294Z,26.03
2019-05-12T12:12:50.176Z,25.93
2019-05-12T12:14:11.390Z,26.04
2019-05-12T12:15:30.688Z,26.08
2019-05-12T12:16:54.769Z,26.27
2019-05-12T12:18:18.067Z,26.36
2019-05-12T12:19:46.897Z,26.67
2019-05-12T12:21:10.322Z,26.74
2019-05-12T12:22:30.903Z,26.22
2019-05-12T12:23:53.413Z,26.04
2019-05-12T12:25:17.535Z,26.31
2019-05-12T12:26:37.429Z,26.39
2019-05-12T12:27:49.396Z,26.61
2019-05-12T12:29:03.292Z,26.81
2019-05-12T12:30:25.998Z,27.2
2019-05-12T12:31:43.365Z,27.58
2019-05-12T12:33:03.903Z,27.6
2019-05-12T12:34:29.749Z,27.57
2019-05-12T12:35:40.877Z,27.85
2019-05-12T12:36:57.155Z,27.88
2019-05-12T12:38:09.489Z,27.78
2019-05-12T12:39:23.691Z,27.73
2019-05-12T12:40:33.767Z,28.08
2019-05-12T12:42:04.367Z,28.41
2019-05-12T12:43:15.979Z,28.57
2019-05-12T12:44:26.406Z,28.01
2019-05-12T12:45:45.731Z,27.58
2019-05-12T12:47:04.388Z,27.23
2019-05-12T12:48:19.187Z,26.93
2019-05-12T12:49:45.057Z,26.91
2019-05-12T12:50:58.887Z,27.07
2019-05-12T12:52:09.398Z,26.85
2019-05-12T12:53:23.611Z,26.52
2019-05-12T12:54:35.710Z,26.59
2019-05-12T12:55:49.197Z,26.76
2019-05-12T12:57:10.809Z,26.64
2019-05-12T12:58:34.367Z,26.48
2019-05-12T12:59:55.367Z,26.46
2019-05-12T13:01:06.219Z,26.45
2019-05-12T13:02:38.988Z,25.96
2019-05-12T13:03:59.172Z,25.78
2019-05-12T13:05:13.549Z,25.78
2019-05-12T13:06:26.209Z,25.66
2019-05-12T13:07:37.935Z,25.66
2019-05-12T13:08:49.649Z,25.7
2019-05-12T13:10:14.194Z,25.66
2019-05-12T13:11:38.222Z,25.78
2019-05-12T13:12:56.409Z,25.96
2019-05-12T13:14:13.532Z,26.1
2019-05-12T13:15:26.113Z,26.34
2019-05-12T13:16:36.822Z,26.34
2019-05-12T13:17:49.396Z,26.53
2019-05-12T13:19:03.664Z,26.59
2019-05-12T13:20:26.336Z,26.59
2019-05-12T13:21:46.442Z,26.6
2019-05-12T13:22:58.268Z,26.66
2019-05-12T13:24:09.230Z,26.71
2019-05-12T13:25:19.416Z,26.85
2019-05-12T13:26:29.131Z,26.91
2019-05-12T13:27:42.347Z,26.91
2019-05-12T13:28:58.088Z,27.08
2019-05-12T13:30:21.595Z,27.29
2019-05-12T13:31:53.739Z,27.5
2019-05-12T13:33:08.643Z,27.57
2019-05-12T13:34:28.691Z,27.63
2019-05-12T13:35:50.087Z,27.48
2019-05-12T13:37:09.239Z,27.35
2019-05-12T13:38:36.272Z,27.07
2019-05-12T13:40:02.429Z,27.29
2019-05-12T13:41:20.575Z,27.13
2019-05-12T13:42:38.474Z,27.3
2019-05-12T13:43:59.901Z,27.05
2019-05-12T13:45:15.545Z,27
2019-05-12T13:46:28.378Z,27
2019-05-12T13:47:46.431Z,26.97
2019-05-12T13:49:03.206Z,27.18
2019-05-12T13:50:28.592Z,27.13
2019-05-12T13:51:42.952Z,26.91
2019-05-12T13:53:01.015Z,27.05
2019-05-12T13:54:25.905Z,27
2019-05-12T13:55:49.931Z,26.79
2019-05-12T13:57:13.716Z,26.81
2019-05-12T13:58:28.065Z,26.66
2019-05-12T13:59:53.589Z,26.6
2019-05-12T14:01:31.762Z,26.63
2019-05-12T14:03:09.387Z,26.53
2019-05-12T14:04:27.613Z,26.44
2019-05-12T14:05:50.230Z,26.03
2019-05-12T14:07:03.872Z,25.93
2019-05-12T14:08:23.764Z,25.7
2019-05-12T14:09:34.292Z,25.51
2019-05-12T14:11:02.076Z,25.51
2019-05-12T14:12:13.510Z,25.51
2019-05-12T14:13:24.454Z,25.44
2019-05-12T14:14:36.518Z,25.52
2019-05-12T14:15:48.963Z,25.68
2019-05-12T14:17:06.420Z,25.7
2019-05-12T14:18:23.307Z,25.7
2019-05-12T14:19:38.233Z,25.67
2019-05-12T14:20:58.407Z,25.59
2019-05-12T14:22:12.790Z,25.43
2019-05-12T14:23:34.264Z,25.4
2019-05-12T14:24:49.335Z,25.51
2019-05-12T14:26:07.488Z,25.61
2019-05-12T14:27:25.219Z,25.81
2019-05-12T14:28:45.374Z,25.8
2019-05-12T14:30:09.676Z,25.96
2019-05-12T14:31:45.140Z,25.98
2019-05-12T14:33:10.409Z,26.07
2019-05-12T14:34:26.097Z,26.26
2019-05-12T14:35:48.179Z,25.92
2019-05-12T14:37:13.733Z,25.88
2019-05-12T14:38:33.763Z,25.91
2019-05-12T14:39:51.107Z,25.76
2019-05-12T14:41:14.391Z,25.85
2019-05-12T14:42:39.643Z,25.96
2019-05-12T14:44:03.614Z,26.22
2019-05-12T14:45:13.703Z,26.29
2019-05-12T14:46:40.016Z,26.19
2019-05-12T14:48:10.072Z,26.24
2019-05-12T14:49:33.212Z,26.18
2019-05-12T14:50:44.112Z,26.16
2019-05-12T14:51:56.038Z,26.19
2019-05-12T14:53:08.515Z,26.29
2019-05-12T14:54:20.349Z,26.41
2019-05-12T14:55:33.682Z,26.49
2019-05-12T14:56:58.154Z,26.36
2019-05-12T14:58:23.411Z,26.06
2019-05-12T14:59:41.910Z,25.92
2019-05-12T15:00:59.159Z,25.8
2019-05-12T15:02:13.443Z,25.7
2019-05-12T15:03:34.181Z,25.71
2019-05-12T15:04:48.189Z,25.77
2019-05-12T15:05:59.530Z,25.76
2019-05-12T15:07:15.361Z,25.77
2019-05-12T15:08:40.264Z,25.67
2019-05-12T15:10:08.494Z,25.81
2019-05-12T15:11:19.630Z,25.83
2019-05-12T15:12:33.388Z,25.63
2019-05-12T15:13:43.716Z,25.41
2019-05-12T15:14:54.310Z,25.63
2019-05-12T15:16:05.017Z,25.74
2019-05-12T15:17:26.991Z,25.91
2019-05-12T15:18:46.389Z,25.85
2019-05-12T15:20:06.409Z,25.67
2019-05-12T15:21:27.189Z,25.78
2019-05-12T15:22:54.950Z,25.83
2019-05-12T15:24:09.035Z,25.85
2019-05-12T15:25:29.184Z,25.83
2019-05-12T15:26:43.203Z,25.85
2019-05-12T15:28:06.343Z,25.81
2019-05-12T15:29:25.944Z,25.73
2019-05-12T15:30:36.200Z,25.71
2019-05-12T15:31:59.018Z,25.68
2019-05-12T15:33:13.570Z,25.71
2019-05-12T15:34:26.003Z,25.73
2019-05-12T15:35:36.854Z,25.71
2019-05-12T15:37:04.115Z,25.76
2019-05-12T15:38:19.579Z,25.68
2019-05-12T15:39:33.560Z,25.63
2019-05-12T15:40:45.790Z,25.62
2019-05-12T15:42:03.313Z,25.54
2019-05-12T15:43:16.172Z,25.41
2019-05-12T15:44:39.177Z,25.36
2019-05-12T15:46:00.232Z,25.36
2019-05-12T15:47:10.251Z,25.41
2019-05-12T15:48:28.172Z,25.26
2019-05-12T15:49:39.817Z,25.04
2019-05-12T15:50:53.845Z,24.82
2019-05-12T15:52:14.183Z,24.61
2019-05-12T15:53:29.554Z,24.46
2019-05-12T15:54:54.040Z,24.48
2019-05-12T15:56:23.771Z,24.36
2019-05-12T15:57:37.988Z,24.26
2019-05-12T15:58:49.362Z,24.07
2019-05-12T16:00:07.457Z,24.03
2019-05-12T16:01:24.005Z,24.07
2019-05-12T16:02:36.396Z,24.01
2019-05-12T16:03:48.621Z,23.86
2019-05-12T16:04:59.864Z,23.74
2019-05-12T16:06:17.134Z,23.86
2019-05-12T16:07:39.521Z,23.89
2019-05-12T16:08:53.413Z,23.86
2019-05-12T16:10:06.589Z,23.84
2019-05-12T16:11:18.838Z,23.67
2019-05-12T16:12:34.159Z,23.58
2019-05-12T16:14:01.511Z,23.37
2019-05-12T16:15:19.900Z,23.4
2019-05-12T16:16:33.901Z,23.56
2019-05-12T16:17:59.302Z,23.4
2019-05-12T16:19:17.146Z,23.26
2019-05-12T16:20:29.128Z,23.26
2019-05-12T16:21:41.010Z,23.29
2019-05-12T16:22:53.292Z,23.49
2019-05-12T16:24:15.878Z,23.45
2019-05-12T16:25:36.448Z,23.28
2019-05-12T16:26:55.796Z,23.34
2019-05-12T16:28:14.886Z,23.11
2019-05-12T16:29:34.016Z,23.04
2019-05-12T16:30:53.580Z,23.06
2019-05-12T16:32:27.235Z,23.02
2019-05-12T16:34:08.497Z,22.83
2019-05-12T16:35:31.601Z,22.88
2019-05-12T16:36:54.731Z,22.73
2019-05-12T16:38:14.629Z,22.74
2019-05-12T16:39:36.507Z,22.7
2019-05-12T16:40:56.394Z,22.62